createdAt,value
2022-09-22T00:01:26.114Z,79.93
2022-09-22T00:03:56.110Z,80.57
2022-09-22T00:06:25.774Z,80.62
2022-09-22T00:08:57.369Z,81.39
2022-09-22T00:11:28.406Z,81.40
2022-09-22T00:13:59.007Z,81.59
2022-09-22T00:16:30.331Z,81.34
2022-09-22T00:18:58.766Z,81.43
2022-09-22T00:21:27.948Z,81.35
2022-09-22T00:23:57.521Z,81.38
2022-09-22T00:26:25.710Z,81.23
2022-09-22T00:28:53.419Z,80.98
2022-09-22T00:31:22.957Z,81.23
2022-09-22T00:33:51.248Z,80.82
2022-09-22T00:36:20.234Z,80.72
2022-09-22T00:38:50.463Z,80.67
2022-09-22T00:41:23.262Z,80.38
2022-09-22T00:43:52.479Z,80.74
2022-09-22T00:46:26.506Z,81.04
2022-09-22T00:48:58.867Z,81.12
2022-09-22T00:51:33.874Z,81.34
2022-09-22T00:54:05.551Z,81.60
2022-09-22T00:56:40.475Z,81.60
2022-09-22T00:59:12.910Z,80.08
2022-09-22T01:01:40.919Z,78.79
2022-09-22T01:04:08.995Z,79.31
2022-09-22T01:06:39.506Z,79.31
2022-09-22T01:09:08.958Z,80.02
2022-09-22T01:11:40.723Z,80.35
2022-09-22T01:14:19.427Z,80.79
2022-09-22T01:16:55.195Z,81.19
2022-09-22T01:19:47.100Z,81.63
2022-09-22T01:22:33.426Z,81.67
2022-09-22T01:25:17.410Z,81.77
2022-09-22T01:28:20.821Z,81.65
2022-09-22T01:30:58.625Z,81.51
2022-09-22T01:33:36.045Z,81.88
2022-09-22T01:36:21.768Z,81.99
2022-09-22T01:39:02.837Z,81.91
2022-09-22T01:41:47.171Z,81.48
2022-09-22T01:44:21.618Z,81.38
2022-09-22T01:46:55.750Z,81.43
2022-09-22T01:49:29.301Z,81.52
2022-09-22T01:52:01.355Z,81.46
2022-09-22T01:54:34.096Z,81.33
2022-09-22T01:57:15.139Z,81.48
2022-09-22T01:59:47.862Z,81.57
2022-09-22T02:02:23.862Z,81.53
2022-09-22T02:04:55.593Z,81.86
2022-09-22T02:07:29.038Z,81.91
2022-09-22T02:09:58.335Z,81.90
2022-09-22T02:12:26.537Z,82.04
2022-09-22T02:14:54.327Z,82.37
2022-09-22T02:17:23.957Z,82.34
2022-09-22T02:19:52.254Z,82.31
2022-09-22T02:22:20.272Z,82.29
2022-09-22T02:24:48.582Z,82.00
2022-09-22T02:27:25.601Z,81.81
2022-09-22T02:29:58.091Z,81.91
2022-09-22T02:32:28.682Z,82.09
2022-09-22T02:34:57.005Z,82.02
2022-09-22T02:37:33.874Z,81.67
2022-09-22T02:40:08.854Z,81.93
2022-09-22T02:42:43.225Z,81.98
2022-09-22T02:45:17.301Z,82.16
2022-09-22T02:47:51.856Z,82.23
2022-09-22T02:50:22.306Z,82.26
2022-09-22T02:52:52.781Z,82.29
2022-09-22T02:55:20.696Z,82.51
2022-09-22T02:57:48.738Z,82.49
2022-09-22T03:00:16.897Z,82.58
2022-09-22T03:02:46.281Z,82.59
2022-09-22T03:05:14.005Z,82.73
2022-09-22T03:07:42.431Z,82.46
2022-09-22T03:10:11.123Z,82.48
2022-09-22T03:13:02.352Z,82.52
2022-09-22T03:15:30.820Z,82.35
2022-09-22T03:18:00.272Z,82.23
2022-09-22T03:20:27.975Z,82.04
2022-09-22T03:22:56.503Z,81.85
2022-09-22T03:25:24.793Z,82.34
2022-09-22T03:27:52.475Z,82.25
2022-09-22T03:30:20.335Z,82.35
2022-09-22T03:32:48.441Z,82.30
2022-09-22T03:35:17.682Z,82.60
2022-09-22T03:37:46.791Z,82.23
2022-09-22T03:40:14.863Z,82.66
2022-09-22T03:42:42.938Z,83.02
2022-09-22T03:45:12.687Z,82.92
2022-09-22T03:47:40.764Z,82.95
2022-09-22T03:50:09.926Z,83.03
2022-09-22T03:52:40.414Z,82.97
2022-09-22T03:55:09.451Z,83.13
2022-09-22T03:57:37.378Z,82.97
2022-09-22T04:00:06.910Z,83.10
2022-09-22T04:02:40.454Z,83.20
2022-09-22T04:05:09.502Z,83.33
2022-09-22T04:07:39.048Z,83.29
2022-09-22T04:10:07.806Z,82.97
2022-09-22T04:12:37.243Z,82.92
2022-09-22T04:15:06.454Z,83.24
2022-09-22T04:17:34.159Z,83.21
2022-09-22T04:20:03.051Z,83.11
2022-09-22T04:22:30.855Z,83.18
2022-09-22T04:25:00.741Z,82.94
2022-09-22T04:27:28.428Z,82.86
2022-09-22T04:29:57.136Z,82.87
2022-09-22T04:32:24.858Z,83.00
2022-09-22T04:34:52.591Z,83.09
2022-09-22T04:37:20.270Z,83.21
2022-09-22T04:39:47.975Z,83.28
2022-09-22T04:42:17.107Z,83.12
2022-09-22T04:44:46.198Z,83.17
2022-09-22T04:47:13.935Z,82.76
2022-09-22T04:49:42.376Z,82.65
2022-09-22T04:52:10.641Z,82.99
2022-09-22T04:54:38.710Z,82.86
2022-09-22T04:57:06.784Z,83.18
2022-09-22T04:59:36.597Z,83.13
2022-09-22T05:02:04.444Z,83.17
2022-09-22T05:04:32.984Z,83.18
2022-09-22T05:07:00.656Z,83.23
2022-09-22T05:09:28.850Z,83.07
2022-09-22T05:12:00.930Z,83.09
2022-09-22T05:14:29.610Z,83.12
2022-09-22T05:16:58.735Z,83.01
2022-09-22T05:19:26.717Z,82.97
2022-09-22T05:21:54.405Z,82.93
2022-09-22T05:24:22.444Z,82.71
2022-09-22T05:26:50.357Z,82.30
2022-09-22T05:29:18.725Z,82.29
2022-09-22T05:31:46.596Z,81.72
2022-09-22T05:34:16.199Z,81.50
2022-09-22T05:36:43.883Z,81.56
2022-09-22T05:39:12.295Z,81.32
2022-09-22T05:41:39.988Z,81.34
2022-09-22T05:44:07.781Z,81.22
2022-09-22T05:46:35.473Z,81.10
2022-09-22T05:49:03.654Z,80.83
2022-09-22T05:51:32.951Z,80.96
2022-09-22T05:54:00.653Z,80.85
2022-09-22T05:56:28.653Z,80.75
2022-09-22T05:58:56.298Z,80.51
2022-09-22T06:01:24.414Z,80.52
2022-09-22T06:03:52.114Z,80.28
2022-09-22T06:06:20.265Z,80.20
2022-09-22T06:08:49.394Z,79.70
2022-09-22T06:11:17.712Z,79.29
2022-09-22T06:13:46.068Z,79.22
2022-09-22T06:16:14.230Z,79.13
2022-09-22T06:18:41.963Z,78.64
2022-09-22T06:21:10.921Z,78.69
2022-09-22T06:23:42.687Z,78.45
2022-09-22T06:26:12.394Z,79.56
2022-09-22T06:28:40.050Z,79.86
2022-09-22T06:31:08.297Z,79.61
2022-09-22T06:33:36.047Z,79.50
2022-09-22T06:36:04.495Z,79.87
2022-09-22T06:38:32.909Z,80.10
2022-09-22T06:41:04.271Z,79.54
2022-09-22T06:43:37.741Z,79.96
2022-09-22T06:46:06.303Z,79.63
2022-09-22T06:48:34.466Z,79.27
2022-09-22T06:51:02.290Z,78.97
2022-09-22T06:53:30.891Z,79.46
2022-09-22T06:56:03.526Z,78.55
2022-09-22T06:58:42.386Z,78.88
2022-09-22T07:01:21.356Z,79.12
2022-09-22T07:03:49.333Z,78.91
2022-09-22T07:06:20.401Z,78.50
2022-09-22T07:08:49.826Z,79.00
2022-09-22T07:11:23.639Z,79.00
2022-09-22T07:13:53.412Z,78.90
2022-09-22T07:16:24.843Z,78.51
2022-09-22T07:18:54.510Z,78.08
2022-09-22T07:21:24.684Z,77.39
2022-09-22T07:23:55.538Z,77.29
2022-09-22T07:26:26.426Z,76.47
2022-09-22T07:28:55.379Z,76.56
2022-09-22T07:31:28.585Z,75.44
2022-09-22T07:34:00.622Z,75.09
2022-09-22T07:36:30.506Z,75.50
2022-09-22T07:38:59.719Z,75.39
2022-09-22T07:41:30.063Z,75.01
2022-09-22T07:44:19.209Z,75.14
2022-09-22T07:46:48.424Z,75.40
2022-09-22T07:49:17.647Z,74.69
2022-09-22T07:51:45.336Z,74.02
2022-09-22T07:54:13.329Z,74.06
2022-09-22T07:56:43.229Z,73.48
2022-09-22T07:59:13.530Z,72.44
2022-09-22T08:01:44.419Z,72.87
2022-09-22T08:04:16.546Z,73.30
2022-09-22T08:06:44.727Z,73.08
2022-09-22T08:09:14.511Z,72.15
2022-09-22T08:11:44.357Z,72.41
2022-09-22T08:14:13.069Z,72.26
2022-09-22T08:16:41.660Z,71.26
2022-09-22T08:19:12.434Z,71.38
2022-09-22T08:21:48.869Z,70.64
2022-09-22T08:24:21.311Z,70.77
2022-09-22T08:26:51.178Z,70.85
2022-09-22T08:29:19.206Z,69.60
2022-09-22T08:31:47.506Z,69.82
2022-09-22T08:34:17.535Z,68.71
2022-09-22T08:36:48.683Z,68.21
2022-09-22T08:39:17.909Z,66.92
2022-09-22T08:41:57.969Z,67.33
2022-09-22T08:44:30.195Z,64.03
2022-09-22T08:47:02.020Z,64.74
2022-09-22T08:49:54.590Z,64.47
2022-09-22T08:52:32.104Z,62.75
2022-09-22T08:55:02.586Z,61.88
2022-09-22T08:57:56.285Z,61.16
2022-09-22T09:00:25.809Z,60.07
2022-09-22T09:03:09.612Z,58.77
2022-09-22T09:06:02.496Z,58.58
2022-09-22T09:08:53.260Z,59.01
2022-09-22T09:11:32.466Z,56.71
2022-09-22T09:14:14.015Z,56.01
2022-09-22T09:16:49.942Z,56.43
2022-09-22T09:19:20.121Z,55.02
2022-09-22T09:21:52.867Z,55.65
2022-09-22T09:27:24.329Z,54.63
2022-09-22T09:30:01.233Z,53.58
2022-09-22T09:32:37.357Z,54.55
2022-09-22T09:35:07.404Z,53.62
2022-09-22T09:37:35.219Z,52.38
2022-09-22T09:40:08.682Z,52.19
2022-09-22T09:42:36.808Z,51.77
2022-09-22T09:45:06.549Z,51.08
2022-09-22T09:47:48.256Z,51.36
2022-09-22T09:50:16.987Z,51.70
2022-09-22T09:52:46.113Z,50.71
2022-09-22T09:55:26.730Z,48.84
2022-09-22T09:58:06.343Z,48.18
2022-09-22T10:00:34.910Z,46.35
2022-09-22T10:03:13.396Z,47.16
2022-09-22T10:05:41.443Z,46.43
2022-09-22T10:08:18.563Z,46.13
2022-09-22T10:10:49.289Z,46.42
2022-09-22T10:13:24.683Z,46.01
2022-09-22T10:16:24.850Z,44.46
2022-09-22T10:19:03.355Z,45.41
2022-09-22T10:21:31.204Z,46.09
2022-09-22T10:24:01.758Z,44.69
2022-09-22T10:26:32.431Z,44.34
2022-09-22T10:29:21.025Z,44.27
2022-09-22T10:32:03.569Z,43.16
2022-09-22T10:34:34.356Z,43.93
2022-09-22T10:37:04.757Z,43.87
2022-09-22T10:39:40.285Z,43.05
2022-09-22T10:42:21.107Z,44.49
2022-09-22T10:44:49.271Z,42.62
2022-09-22T10:47:31.090Z,43.75
2022-09-22T10:50:42.592Z,43.75
2022-09-22T10:53:26.414Z,43.19
2022-09-22T10:56:01.947Z,43.14
2022-09-22T10:58:56.246Z,43.01
2022-09-22T11:01:40.758Z,44.17
2022-09-22T11:04:22.135Z,43.87
2022-09-22T11:07:37.611Z,42.78
2022-09-22T11:10:32.414Z,42.84
2022-09-22T11:13:10.926Z,43.00
2022-09-22T11:16:04.800Z,44.13
2022-09-22T11:18:52.214Z,41.90
2022-09-22T11:21:33.117Z,42.21
2022-09-22T11:24:13.385Z,43.06
2022-09-22T11:26:48.435Z,43.48
2022-09-22T11:29:53.414Z,45.64
2022-09-22T11:32:38.441Z,45.81
2022-09-22T11:35:27.037Z,45.64
2022-09-22T11:38:13.468Z,47.53
2022-09-22T11:41:03.122Z,47.06
2022-09-22T11:43:59.083Z,46.75
2022-09-22T11:46:40.374Z,48.09
2022-09-22T11:49:24.919Z,48.53
2022-09-22T11:52:13.814Z,47.44
2022-09-22T11:55:04.779Z,48.89
2022-09-22T11:57:36.178Z,48.29
2022-09-22T12:00:13.140Z,47.94
2022-09-22T12:02:46.485Z,50.32
2022-09-22T12:05:20.541Z,48.91
2022-09-22T12:07:57.391Z,47.83
2022-09-22T12:10:33.829Z,49.37
2022-09-22T12:13:02.587Z,48.78
2022-09-22T12:15:38.736Z,49.85
2022-09-22T12:18:13.225Z,49.63
2022-09-22T12:20:57.683Z,48.42
2022-09-22T12:23:37.950Z,48.47
2022-09-22T12:26:09.402Z,48.24
2022-09-22T12:28:42.898Z,49.11
2022-09-22T12:31:14.185Z,49.88
2022-09-22T12:33:48.706Z,49.00
2022-09-22T12:36:20.070Z,48.27
2022-09-22T12:38:47.818Z,47.99
2022-09-22T12:41:20.249Z,49.10
2022-09-22T12:43:48.706Z,48.35
2022-09-22T12:46:27.863Z,49.76
2022-09-22T12:48:55.679Z,50.54
2022-09-22T12:51:34.014Z,49.82
2022-09-22T12:54:47.839Z,49.53
2022-09-22T12:57:29.303Z,49.57
2022-09-22T13:00:32.896Z,49.55
2022-09-22T13:03:22.253Z,49.56
2022-09-22T13:05:49.913Z,49.53
2022-09-22T13:08:23.832Z,49.99
2022-09-22T13:11:02.021Z,49.80
2022-09-22T13:13:39.735Z,49.65
2022-09-22T13:16:34.769Z,49.32
2022-09-22T13:19:03.459Z,48.99
2022-09-22T13:21:33.733Z,49.15
2022-09-22T13:24:05.048Z,50.70
2022-09-22T13:26:35.001Z,50.43
2022-09-22T13:29:06.914Z,49.99
2022-09-22T13:31:40.031Z,50.49
2022-09-22T13:34:31.088Z,50.43
2022-09-22T13:37:01.717Z,49.40
2022-09-22T13:39:34.378Z,50.40
2022-09-22T13:42:06.596Z,49.38
2022-09-22T13:44:37.972Z,50.97
2022-09-22T13:47:09.651Z,50.20
2022-09-22T13:49:42.199Z,49.50
2022-09-22T13:52:16.840Z,49.98
2022-09-22T13:54:49.053Z,50.06
2022-09-22T13:57:23.046Z,50.32
2022-09-22T13:59:52.526Z,50.10
2022-09-22T14:02:27.029Z,49.14
2022-09-22T14:05:01.535Z,49.08
2022-09-22T14:07:35.975Z,49.13
2022-09-22T14:10:09.649Z,48.82
2022-09-22T14:12:40.616Z,49.11
2022-09-22T14:15:33.629Z,50.36
2022-09-22T14:18:02.238Z,49.97
2022-09-22T14:20:30.001Z,48.89
2022-09-22T14:22:58.120Z,48.99
2022-09-22T14:25:27.261Z,49.35
2022-09-22T14:27:59.691Z,49.01
2022-09-22T14:30:31.045Z,49.63
2022-09-22T14:33:03.060Z,48.87
2022-09-22T14:35:33.367Z,48.65
2022-09-22T14:38:12.996Z,48.80
2022-09-22T14:40:53.993Z,49.89
2022-09-22T14:43:25.637Z,49.33
2022-09-22T14:45:58.101Z,49.10
2022-09-22T14:48:30.216Z,48.93
2022-09-22T14:51:02.827Z,47.67
2022-09-22T14:53:34.179Z,45.83
2022-09-22T14:56:07.264Z,45.16
2022-09-22T14:58:40.570Z,45.38
2022-09-22T15:01:39.584Z,43.21
2022-09-22T15:04:15.022Z,44.33
2022-09-22T15:06:43.242Z,44.18
2022-09-22T15:09:22.351Z,43.55
2022-09-22T15:11:53.249Z,43.84
2022-09-22T15:14:31.756Z,44.29
2022-09-22T15:17:19.615Z,44.67
2022-09-22T15:19:50.788Z,45.35
2022-09-22T15:22:18.702Z,44.35
2022-09-22T15:24:47.274Z,45.67
2022-09-22T15:27:17.777Z,44.67
2022-09-22T15:29:45.987Z,44.44
2022-09-22T15:32:14.130Z,44.75
2022-09-22T15:34:45.161Z,44.93
2022-09-22T15:37:17.159Z,44.55
2022-09-22T15:39:45.156Z,45.17
2022-09-22T15:42:12.997Z,44.66
2022-09-22T15:44:43.043Z,45.20
2022-09-22T15:47:16.592Z,44.74
2022-09-22T15:49:45.323Z,43.83
2022-09-22T15:52:12.977Z,43.06
2022-09-22T15:54:40.650Z,42.12
2022-09-22T15:57:08.347Z,41.38
2022-09-22T15:59:39.903Z,41.17
2022-09-22T16:02:12.570Z,40.72
2022-09-22T16:04:40.591Z,40.83
2022-09-22T16:07:13.761Z,41.40
2022-09-22T16:09:42.114Z,42.27
2022-09-22T16:12:13.701Z,43.53
2022-09-22T16:14:42.789Z,45.23
2022-09-22T16:17:11.794Z,46.65
2022-09-22T16:19:39.905Z,47.32
2022-09-22T16:22:07.751Z,48.36
2022-09-22T16:24:36.047Z,48.99
2022-09-22T16:27:07.278Z,49.84
2022-09-22T16:29:37.707Z,50.42
2022-09-22T16:32:05.554Z,50.72
2022-09-22T16:34:36.291Z,51.19
2022-09-22T16:37:04.184Z,51.44
2022-09-22T16:39:31.850Z,52.23
2022-09-22T16:41:59.527Z,52.32
2022-09-22T16:44:27.679Z,53.03
2022-09-22T16:46:55.427Z,53.52
2022-09-22T16:49:23.247Z,54.38
2022-09-22T16:51:55.007Z,54.95
2022-09-22T16:54:24.683Z,55.70
2022-09-22T16:56:53.786Z,55.85
2022-09-22T16:59:23.471Z,56.10
2022-09-22T17:01:51.634Z,56.67
2022-09-22T17:04:20.127Z,57.19
2022-09-22T17:06:48.551Z,57.54
2022-09-22T17:09:18.901Z,57.57
2022-09-22T17:11:49.073Z,58.06
2022-09-22T17:14:21.396Z,58.50
2022-09-22T17:16:51.863Z,59.23
2022-09-22T17:19:22.331Z,59.71
2022-09-22T17:21:53.941Z,60.45
2022-09-22T17:24:24.567Z,60.76
2022-09-22T17:26:53.937Z,60.86
2022-09-22T17:29:25.525Z,61.44
2022-09-22T17:31:56.430Z,62.02
2022-09-22T17:34:25.677Z,62.38
2022-09-22T17:36:55.347Z,62.74
2022-09-22T17:39:26.099Z,63.07
2022-09-22T17:41:53.978Z,63.41
2022-09-22T17:44:23.045Z,63.53
2022-09-22T17:47:10.017Z,63.71
2022-09-22T17:49:56.488Z,63.93
2022-09-22T17:52:41.944Z,63.98
2022-09-22T17:55:20.282Z,63.83
2022-09-22T17:57:48.110Z,64.31
2022-09-22T18:00:19.464Z,64.53
2022-09-22T18:02:47.437Z,64.72
2022-09-22T18:05:17.677Z,65.03
2022-09-22T18:07:45.339Z,64.96
2022-09-22T18:10:16.593Z,65.37
2022-09-22T18:12:44.550Z,65.52
2022-09-22T18:15:13.916Z,65.45
2022-09-22T18:17:42.966Z,65.96
2022-09-22T18:20:15.396Z,67.33
2022-09-22T18:22:48.231Z,67.85
2022-09-22T18:25:19.902Z,68.53
2022-09-22T18:27:48.205Z,68.60
2022-09-22T18:30:17.065Z,69.28
2022-09-22T18:32:44.730Z,69.61
2022-09-22T18:35:12.894Z,69.78
2022-09-22T18:37:40.961Z,69.54
2022-09-22T18:40:12.789Z,69.66
2022-09-22T18:42:44.698Z,69.95
2022-09-22T18:45:14.223Z,70.52
2022-09-22T18:47:43.435Z,70.91
2022-09-22T18:50:12.398Z,71.17
2022-09-22T18:52:42.891Z,71.37
2022-09-22T18:55:12.294Z,71.72
2022-09-22T18:57:40.075Z,71.78
2022-09-22T19:00:13.825Z,72.15
2022-09-22T19:02:41.763Z,72.48
2022-09-22T19:05:10.292Z,72.69
2022-09-22T19:07:43.821Z,73.09
2022-09-22T19:10:14.423Z,73.30
2022-09-22T19:12:42.814Z,73.08
2022-09-22T19:15:15.221Z,73.23
2022-09-22T19:17:44.551Z,73.07
2022-09-22T19:20:14.776Z,73.33
2022-09-22T19:22:42.543Z,73.62
2022-09-22T19:25:11.279Z,73.84
2022-09-22T19:27:39.735Z,74.10
2022-09-22T19:30:08.683Z,74.69
2022-09-22T19:32:38.141Z,74.58
2022-09-22T19:35:07.042Z,75.09
2022-09-22T19:37:34.752Z,75.50
2022-09-22T19:40:02.942Z,75.56
2022-09-22T19:42:30.656Z,76.09
2022-09-22T19:44:59.448Z,75.86
2022-09-22T19:47:27.220Z,75.96
2022-09-22T19:49:56.372Z,76.28
2022-09-22T19:52:24.041Z,76.44
2022-09-22T19:54:52.135Z,76.47
2022-09-22T19:57:19.786Z,76.06
2022-09-22T19:59:47.450Z,75.96
2022-09-22T20:02:15.943Z,76.20
2022-09-22T20:04:44.668Z,76.66
2022-09-22T20:07:13.824Z,76.98
2022-09-22T20:09:41.580Z,77.27
2022-09-22T20:12:09.313Z,76.72
2022-09-22T20:14:37.619Z,76.86
2022-09-22T20:17:08.008Z,76.89
2022-09-22T20:19:38.301Z,76.93
2022-09-22T20:22:25.073Z,77.17
2022-09-22T20:24:55.948Z,77.54
2022-09-22T20:27:25.304Z,77.70
2022-09-22T20:29:57.034Z,77.76
2022-09-22T20:32:26.152Z,77.49
2022-09-22T20:34:55.376Z,78.17
2022-09-22T20:37:25.150Z,77.86
2022-09-22T20:39:53.199Z,78.07
2022-09-22T20:42:20.885Z,78.02
2022-09-22T20:44:49.467Z,78.26
2022-09-22T20:47:19.697Z,78.58
2022-09-22T20:49:51.523Z,78.73
2022-09-22T20:52:20.862Z,78.80
2022-09-22T20:54:50.343Z,78.66
2022-09-22T20:57:18.348Z,79.33
2022-09-22T20:59:47.132Z,79.15
2022-09-22T21:02:15.915Z,79.31
2022-09-22T21:04:43.808Z,79.60
2022-09-22T21:07:12.227Z,79.35
2022-09-22T21:09:56.936Z,79.78
2022-09-22T21:12:30.707Z,79.94
2022-09-22T21:14:58.940Z,80.23
2022-09-22T21:17:27.675Z,80.43
2022-09-22T21:19:57.640Z,80.15
2022-09-22T21:22:28.021Z,80.38
2022-09-22T21:24:56.172Z,80.32
2022-09-22T21:27:24.707Z,80.44
2022-09-22T21:29:54.118Z,80.43
2022-09-22T21:32:21.795Z,80.04
2022-09-22T21:34:49.833Z,80.05
2022-09-22T21:37:17.490Z,79.78
2022-09-22T21:39:45.383Z,80.21
2022-09-22T21:42:13.096Z,80.55
2022-09-22T21:44:40.756Z,80.88
2022-09-22T21:47:11.135Z,80.90
2022-09-22T21:49:39.111Z,80.88
2022-09-22T21:52:06.838Z,81.32
2022-09-22T21:54:34.842Z,81.02
2022-09-22T21:57:02.505Z,81.31
2022-09-22T21:59:31.302Z,81.34
2022-09-22T22:01:59.017Z,81.38
2022-09-22T22:04:28.418Z,81.41
2022-09-22T22:06:56.102Z,82.00
2022-09-22T22:09:26.019Z,82.24
2022-09-22T22:11:56.281Z,81.93
2022-09-22T22:14:26.310Z,83.19
2022-09-22T22:16:55.670Z,82.93
2022-09-22T22:19:26.886Z,82.90
2022-09-22T22:21:56.303Z,82.21
2022-09-22T22:24:39.939Z,82.69
2022-09-22T22:27:10.876Z,82.34
2022-09-22T22:29:39.517Z,82.53
2022-09-22T22:32:09.470Z,82.29
2022-09-22T22:34:38.553Z,82.37
2022-09-22T22:37:10.027Z,82.40
2022-09-22T22:39:38.562Z,82.22
2022-09-22T22:42:07.303Z,81.73
2022-09-22T22:44:35.152Z,81.73
2022-09-22T22:47:03.024Z,81.26
2022-09-22T22:49:31.336Z,81.33
2022-09-22T22:51:59.047Z,81.48
2022-09-22T22:54:28.427Z,81.51
2022-09-22T22:56:56.170Z,81.74
2022-09-22T22:59:23.849Z,81.71
2022-09-22T23:01:51.589Z,81.10
2022-09-22T23:04:19.579Z,81.53
2022-09-22T23:06:48.441Z,81.45
2022-09-22T23:09:17.831Z,81.60
2022-09-22T23:11:47.536Z,81.59
2022-09-22T23:14:16.553Z,81.50
2022-09-22T23:16:46.050Z,81.95
2022-09-22T23:19:16.387Z,81.84
2022-09-22T23:21:44.979Z,81.44
2022-09-22T23:24:16.333Z,81.71
2022-09-22T23:26:44.662Z,81.64
2022-09-22T23:29:14.577Z,81.47
2022-09-22T23:31:42.353Z,81.42
2022-09-22T23:34:10.907Z,81.56
2022-09-22T23:36:39.492Z,81.11
2022-09-22T23:39:07.691Z,81.23
2022-09-22T23:41:37.317Z,81.16
2022-09-22T23:44:06.687Z,80.79
2022-09-22T23:46:38.259Z,80.67
2022-09-22T23:49:06.612Z,80.67
2022-09-22T23:51:34.748Z,80.81
2022-09-22T23:54:02.482Z,80.66
2022-09-22T23:56:30.568Z,80.58
2022-09-22T23:58:58.300Z,80.39
